sensor_id;sensor_type;location;lat;lon;timestamp;P1;durP1;ratioP1;P2;durP2;ratioP2
8632;SDS011;4354;49.832;10.746;2024-01-16T00:00:57;8.87;;;5.80;;
8632;SDS011;4354;49.832;10.746;2024-01-16T00:03:24;10.37;;;6.23;;
8632;SDS011;4354;49.832;10.746;2024-01-16T00:05:51;8.80;;;5.70;;
8632;SDS011;4354;49.832;10.746;2024-01-16T00:08:18;11.50;;;6.00;;
8632;SDS011;4354;49.832;10.746;2024-01-16T00:10:45;7.27;;;5.43;;
8632;SDS011;4354;49.832;10.746;2024-01-16T00:13:12;8.80;;;5.30;;
8632;SDS011;4354;49.832;10.746;2024-01-16T00:15:39;7.30;;;5.67;;
8632;SDS011;4354;49.832;10.746;2024-01-16T00:18:09;10.83;;;5.87;;
8632;SDS011;4354;49.832;10.746;2024-01-16T00:20:36;8.50;;;6.03;;
8632;SDS011;4354;49.832;10.746;2024-01-16T00:23:03;9.67;;;5.30;;
8632;SDS011;4354;49.832;10.746;2024-01-16T00:25:30;9.97;;;5.60;;
8632;SDS011;4354;49.832;10.746;2024-01-16T00:27:57;8.73;;;5.40;;
8632;SDS011;4354;49.832;10.746;2024-01-16T00:30:23;8.67;;;5.40;;
8632;SDS011;4354;49.832;10.746;2024-01-16T00:32:50;8.00;;;5.37;;
8632;SDS011;4354;49.832;10.746;2024-01-16T00:35:18;8.20;;;5.43;;
8632;SDS011;4354;49.832;10.746;2024-01-16T00:37:45;10.83;;;5.90;;
8632;SDS011;4354;49.832;10.746;2024-01-16T00:40:12;7.20;;;5.67;;
8632;SDS011;4354;49.832;10.746;2024-01-16T00:42:39;8.20;;;5.27;;
8632;SDS011;4354;49.832;10.746;2024-01-16T00:45:06;8.40;;;5.23;;
8632;SDS011;4354;49.832;10.746;2024-01-16T00:47:33;10.10;;;5.83;;
8632;SDS011;4354;49.832;10.746;2024-01-16T00:50:00;6.27;;;5.00;;
8632;SDS011;4354;49.832;10.746;2024-01-16T00:52:28;9.47;;;5.00;;
8632;SDS011;4354;49.832;10.746;2024-01-16T00:54:55;7.27;;;4.87;;
8632;SDS011;4354;49.832;10.746;2024-01-16T00:57:22;8.17;;;4.90;;
8632;SDS011;4354;49.832;10.746;2024-01-16T00:59:49;8.57;;;5.47;;
8632;SDS011;4354;49.832;10.746;2024-01-16T01:02:16;6.57;;;4.50;;
8632;SDS011;4354;49.832;10.746;2024-01-16T01:04:43;7.07;;;4.53;;
8632;SDS011;4354;49.832;10.746;2024-01-16T01:07:12;6.63;;;5.20;;
8632;SDS011;4354;49.832;10.746;2024-01-16T01:09:40;6.63;;;5.10;;
8632;SDS011;4354;49.832;10.746;2024-01-16T01:12:07;7.23;;;4.97;;
8632;SDS011;4354;49.832;10.746;2024-01-16T01:14:34;9.50;;;4.90;;
8632;SDS011;4354;49.832;10.746;2024-01-16T01:17:01;9.60;;;4.90;;
8632;SDS011;4354;49.832;10.746;2024-01-16T01:19:28;5.97;;;4.70;;
8632;SDS011;4354;49.832;10.746;2024-01-16T01:21:55;6.43;;;4.23;;
8632;SDS011;4354;49.832;10.746;2024-01-16T01:24:22;6.43;;;4.03;;
8632;SDS011;4354;49.832;10.746;2024-01-16T01:26:49;10.07;;;4.47;;
8632;SDS011;4354;49.832;10.746;2024-01-16T01:29:16;7.87;;;4.83;;
8632;SDS011;4354;49.832;10.746;2024-01-16T01:31:47;7.70;;;4.17;;
8632;SDS011;4354;49.832;10.746;2024-01-16T01:34:14;11.13;;;4.10;;
8632;SDS011;4354;49.832;10.746;2024-01-16T01:36:42;7.27;;;5.07;;
8632;SDS011;4354;49.832;10.746;2024-01-16T01:39:09;7.23;;;4.80;;
8632;SDS011;4354;49.832;10.746;2024-01-16T01:41:39;8.63;;;4.87;;
8632;SDS011;4354;49.832;10.746;2024-01-16T01:44:06;8.77;;;5.07;;
8632;SDS011;4354;49.832;10.746;2024-01-16T01:46:33;7.83;;;4.30;;
8632;SDS011;4354;49.832;10.746;2024-01-16T01:49:02;8.37;;;4.77;;
8632;SDS011;4354;49.832;10.746;2024-01-16T01:51:29;6.70;;;4.87;;
8632;SDS011;4354;49.832;10.746;2024-01-16T01:53:57;8.83;;;5.10;;
8632;SDS011;4354;49.832;10.746;2024-01-16T01:56:25;6.80;;;4.60;;
8632;SDS011;4354;49.832;10.746;2024-01-16T01:58:54;7.30;;;4.80;;
8632;SDS011;4354;49.832;10.746;2024-01-16T02:01:24;8.60;;;4.80;;
8632;SDS011;4354;49.832;10.746;2024-01-16T02:03:54;6.20;;;4.70;;
8632;SDS011;4354;49.832;10.746;2024-01-16T02:06:23;9.13;;;5.20;;
8632;SDS011;4354;49.832;10.746;2024-01-16T02:08:50;7.67;;;4.93;;
8632;SDS011;4354;49.832;10.746;2024-01-16T02:11:17;8.77;;;4.57;;
8632;SDS011;4354;49.832;10.746;2024-01-16T02:13:44;8.27;;;5.03;;
8632;SDS011;4354;49.832;10.746;2024-01-16T02:16:18;9.43;;;5.50;;
8632;SDS011;4354;49.832;10.746;2024-01-16T02:18:45;9.20;;;5.27;;
8632;SDS011;4354;49.832;10.746;2024-01-16T02:21:12;7.87;;;5.13;;
8632;SDS011;4354;49.832;10.746;2024-01-16T02:23:44;8.27;;;5.00;;
8632;SDS011;4354;49.832;10.746;2024-01-16T02:26:11;9.80;;;4.93;;
8632;SDS011;4354;49.832;10.746;2024-01-16T02:28:38;6.30;;;4.57;;
8632;SDS011;4354;49.832;10.746;2024-01-16T02:31:06;6.93;;;4.47;;
8632;SDS011;4354;49.832;10.746;2024-01-16T02:33:34;6.60;;;4.87;;
8632;SDS011;4354;49.832;10.746;2024-01-16T02:36:00;7.93;;;4.97;;
8632;SDS011;4354;49.832;10.746;2024-01-16T02:38:27;10.97;;;5.10;;
8632;SDS011;4354;49.832;10.746;2024-01-16T02:40:54;8.77;;;5.00;;
8632;SDS011;4354;49.832;10.746;2024-01-16T02:43:21;6.43;;;4.80;;
8632;SDS011;4354;49.832;10.746;2024-01-16T02:45:48;8.97;;;5.13;;
8632;SDS011;4354;49.832;10.746;2024-01-16T02:48:14;8.73;;;5.97;;
8632;SDS011;4354;49.832;10.746;2024-01-16T02:50:41;7.73;;;5.20;;
8632;SDS011;4354;49.832;10.746;2024-01-16T02:53:09;8.80;;;5.40;;
8632;SDS011;4354;49.832;10.746;2024-01-16T02:55:36;5.63;;;4.50;;
8632;SDS011;4354;49.832;10.746;2024-01-16T02:58:03;9.67;;;4.97;;
8632;SDS011;4354;49.832;10.746;2024-01-16T03:00:30;9.63;;;5.40;;
8632;SDS011;4354;49.832;10.746;2024-01-16T03:02:57;6.97;;;5.03;;
8632;SDS011;4354;49.832;10.746;2024-01-16T03:05:23;9.53;;;5.50;;
8632;SDS011;4354;49.832;10.746;2024-01-16T03:07:50;10.60;;;5.80;;
8632;SDS011;4354;49.832;10.746;2024-01-16T03:10:17;7.57;;;5.10;;
8632;SDS011;4354;49.832;10.746;2024-01-16T03:12:44;11.63;;;5.83;;
8632;SDS011;4354;49.832;10.746;2024-01-16T03:15:11;8.97;;;5.40;;
8632;SDS011;4354;49.832;10.746;2024-01-16T03:17:38;9.63;;;5.50;;
8632;SDS011;4354;49.832;10.746;2024-01-16T03:20:05;7.77;;;5.30;;
8632;SDS011;4354;49.832;10.746;2024-01-16T03:22:33;6.20;;;5.30;;
8632;SDS011;4354;49.832;10.746;2024-01-16T03:25:00;9.10;;;5.87;;
8632;SDS011;4354;49.832;10.746;2024-01-16T03:27:28;8.67;;;6.00;;
8632;SDS011;4354;49.832;10.746;2024-01-16T03:29:55;11.17;;;5.70;;
8632;SDS011;4354;49.832;10.746;2024-01-16T03:32:22;9.33;;;5.60;;
8632;SDS011;4354;49.832;10.746;2024-01-16T03:34:49;11.43;;;6.13;;
8632;SDS011;4354;49.832;10.746;2024-01-16T03:37:16;9.73;;;6.03;;
8632;SDS011;4354;49.832;10.746;2024-01-16T03:39:42;8.53;;;5.23;;
8632;SDS011;4354;49.832;10.746;2024-01-16T03:42:11;7.57;;;5.53;;
8632;SDS011;4354;49.832;10.746;2024-01-16T03:44:41;6.27;;;4.97;;
8632;SDS011;4354;49.832;10.746;2024-01-16T03:47:08;8.13;;;5.37;;
8632;SDS011;4354;49.832;10.746;2024-01-16T03:49:35;10.97;;;5.90;;
8632;SDS011;4354;49.832;10.746;2024-01-16T03:52:02;10.10;;;5.63;;
8632;SDS011;4354;49.832;10.746;2024-01-16T03:54:29;8.57;;;5.50;;
8632;SDS011;4354;49.832;10.746;2024-01-16T03:56:56;8.87;;;5.87;;
8632;SDS011;4354;49.832;10.746;2024-01-16T03:59:23;8.57;;;6.00;;
8632;SDS011;4354;49.832;10.746;2024-01-16T04:01:50;8.00;;;5.70;;
8632;SDS011;4354;49.832;10.746;2024-01-16T04:04:17;13.10;;;6.30;;
8632;SDS011;4354;49.832;10.746;2024-01-16T04:06:44;9.57;;;6.20;;
8632;SDS011;4354;49.832;10.746;2024-01-16T04:09:12;9.07;;;7.17;;
8632;SDS011;4354;49.832;10.746;2024-01-16T04:11:40;11.00;;;7.10;;
8632;SDS011;4354;49.832;10.746;2024-01-16T04:14:07;10.47;;;7.10;;
8632;SDS011;4354;49.832;10.746;2024-01-16T04:16:34;10.53;;;6.77;;
8632;SDS011;4354;49.832;10.746;2024-01-16T04:19:01;9.27;;;6.57;;
8632;SDS011;4354;49.832;10.746;2024-01-16T04:21:28;11.90;;;7.07;;
8632;SDS011;4354;49.832;10.746;2024-01-16T04:23:55;11.70;;;7.13;;
8632;SDS011;4354;49.832;10.746;2024-01-16T04:26:22;9.93;;;7.27;;
8632;SDS011;4354;49.832;10.746;2024-01-16T04:28:51;9.00;;;6.63;;
8632;SDS011;4354;49.832;10.746;2024-01-16T04:31:18;12.77;;;7.27;;
8632;SDS011;4354;49.832;10.746;2024-01-16T04:33:47;12.33;;;7.33;;
8632;SDS011;4354;49.832;10.746;2024-01-16T04:36:15;11.70;;;7.13;;
8632;SDS011;4354;49.832;10.746;2024-01-16T04:38:41;10.60;;;7.33;;
8632;SDS011;4354;49.832;10.746;2024-01-16T04:41:08;9.37;;;6.93;;
8632;SDS011;4354;49.832;10.746;2024-01-16T04:43:35;11.27;;;6.80;;
8632;SDS011;4354;49.832;10.746;2024-01-16T04:46:02;11.17;;;7.33;;
8632;SDS011;4354;49.832;10.746;2024-01-16T04:48:29;9.70;;;7.23;;
8632;SDS011;4354;49.832;10.746;2024-01-16T04:50:56;10.30;;;7.20;;
8632;SDS011;4354;49.832;10.746;2024-01-16T04:53:23;10.90;;;6.47;;
8632;SDS011;4354;49.832;10.746;2024-01-16T04:55:50;9.43;;;6.50;;
8632;SDS011;4354;49.832;10.746;2024-01-16T04:58:17;13.70;;;6.90;;
8632;SDS011;4354;49.832;10.746;2024-01-16T05:00:45;11.00;;;6.63;;
8632;SDS011;4354;49.832;10.746;2024-01-16T05:03:12;12.57;;;7.83;;
8632;SDS011;4354;49.832;10.746;2024-01-16T05:05:39;15.20;;;8.13;;
8632;SDS011;4354;49.832;10.746;2024-01-16T05:08:07;9.43;;;7.70;;
8632;SDS011;4354;49.832;10.746;2024-01-16T05:10:34;12.27;;;7.77;;
8632;SDS011;4354;49.832;10.746;2024-01-16T05:13:00;11.47;;;7.67;;
8632;SDS011;4354;49.832;10.746;2024-01-16T05:15:27;14.63;;;7.67;;
8632;SDS011;4354;49.832;10.746;2024-01-16T05:17:54;11.93;;;7.70;;
8632;SDS011;4354;49.832;10.746;2024-01-16T05:20:21;12.73;;;7.83;;
8632;SDS011;4354;49.832;10.746;2024-01-16T05:22:49;12.70;;;8.60;;
8632;SDS011;4354;49.832;10.746;2024-01-16T05:25:15;13.80;;;8.60;;
8632;SDS011;4354;49.832;10.746;2024-01-16T05:27:44;12.73;;;8.03;;
8632;SDS011;4354;49.832;10.746;2024-01-16T05:30:11;12.63;;;8.30;;
8632;SDS011;4354;49.832;10.746;2024-01-16T05:32:38;10.37;;;8.40;;
8632;SDS011;4354;49.832;10.746;2024-01-16T05:35:07;11.93;;;8.53;;
8632;SDS011;4354;49.832;10.746;2024-01-16T05:37:36;11.20;;;8.57;;
8632;SDS011;4354;49.832;10.746;2024-01-16T05:40:03;15.77;;;9.07;;
8632;SDS011;4354;49.832;10.746;2024-01-16T05:42:30;15.43;;;10.07;;
8632;SDS011;4354;49.832;10.746;2024-01-16T05:44:57;18.00;;;8.93;;
8632;SDS011;4354;49.832;10.746;2024-01-16T05:47:23;12.60;;;8.27;;
8632;SDS011;4354;49.832;10.746;2024-01-16T05:49:54;13.73;;;8.53;;
8632;SDS011;4354;49.832;10.746;2024-01-16T05:52:22;11.63;;;8.10;;
8632;SDS011;4354;49.832;10.746;2024-01-16T05:54:49;12.90;;;8.50;;
8632;SDS011;4354;49.832;10.746;2024-01-16T05:57:16;16.23;;;8.43;;
8632;SDS011;4354;49.832;10.746;2024-01-16T05:59:43;10.77;;;7.63;;
8632;SDS011;4354;49.832;10.746;2024-01-16T06:02:10;10.80;;;8.00;;
8632;SDS011;4354;49.832;10.746;2024-01-16T06:04:37;13.67;;;8.87;;
8632;SDS011;4354;49.832;10.746;2024-01-16T06:07:04;16.93;;;9.03;;
8632;SDS011;4354;49.832;10.746;2024-01-16T06:09:33;13.30;;;8.23;;
8632;SDS011;4354;49.832;10.746;2024-01-16T06:12:05;10.67;;;7.83;;
8632;SDS011;4354;49.832;10.746;2024-01-16T06:14:33;11.63;;;7.67;;
8632;SDS011;4354;49.832;10.746;2024-01-16T06:17:00;10.20;;;6.97;;
8632;SDS011;4354;49.832;10.746;2024-01-16T06:19:27;14.07;;;7.77;;
8632;SDS011;4354;49.832;10.746;2024-01-16T06:21:54;10.23;;;7.70;;
8632;SDS011;4354;49.832;10.746;2024-01-16T06:24:21;9.63;;;7.57;;
8632;SDS011;4354;49.832;10.746;2024-01-16T06:26:47;12.73;;;7.90;;
8632;SDS011;4354;49.832;10.746;2024-01-16T06:29:14;12.37;;;8.30;;
8632;SDS011;4354;49.832;10.746;2024-01-16T06:31:58;10.13;;;7.50;;
8632;SDS011;4354;49.832;10.746;2024-01-16T06:34:25;11.43;;;8.17;;
8632;SDS011;4354;49.832;10.746;2024-01-16T06:36:52;15.53;;;7.80;;
8632;SDS011;4354;49.832;10.746;2024-01-16T06:39:19;13.20;;;7.70;;
8632;SDS011;4354;49.832;10.746;2024-01-16T06:41:46;11.53;;;8.17;;
8632;SDS011;4354;49.832;10.746;2024-01-16T06:44:13;14.97;;;9.07;;
8632;SDS011;4354;49.832;10.746;2024-01-16T06:46:39;13.90;;;8.73;;
8632;SDS011;4354;49.832;10.746;2024-01-16T06:49:06;18.33;;;9.27;;
8632;SDS011;4354;49.832;10.746;2024-01-16T06:51:33;16.17;;;8.67;;
8632;SDS011;4354;49.832;10.746;2024-01-16T06:54:00;13.50;;;8.20;;
8632;SDS011;4354;49.832;10.746;2024-01-16T06:56:27;13.13;;;8.57;;
8632;SDS011;4354;49.832;10.746;2024-01-16T06:58:54;13.10;;;8.47;;
8632;SDS011;4354;49.832;10.746;2024-01-16T07:01:20;15.47;;;7.57;;
8632;SDS011;4354;49.832;10.746;2024-01-16T07:03:47;14.80;;;8.97;;
8632;SDS011;4354;49.832;10.746;2024-01-16T07:06:14;13.13;;;8.93;;
8632;SDS011;4354;49.832;10.746;2024-01-16T07:08:41;13.37;;;9.37;;
8632;SDS011;4354;49.832;10.746;2024-01-16T07:11:08;13.50;;;8.83;;
8632;SDS011;4354;49.832;10.746;2024-01-16T07:13:39;13.07;;;9.27;;
8632;SDS011;4354;49.832;10.746;2024-01-16T07:16:09;14.27;;;9.30;;
8632;SDS011;4354;49.832;10.746;2024-01-16T07:18:37;14.03;;;9.67;;
8632;SDS011;4354;49.832;10.746;2024-01-16T07:21:15;12.27;;;9.37;;
8632;SDS011;4354;49.832;10.746;2024-01-16T07:23:43;16.30;;;9.80;;
8632;SDS011;4354;49.832;10.746;2024-01-16T07:26:10;14.40;;;8.90;;
8632;SDS011;4354;49.832;10.746;2024-01-16T07:28:37;15.33;;;10.53;;
8632;SDS011;4354;49.832;10.746;2024-01-16T07:31:04;13.07;;;9.20;;
8632;SDS011;4354;49.832;10.746;2024-01-16T07:33:32;13.27;;;9.43;;
8632;SDS011;4354;49.832;10.746;2024-01-16T07:35:59;15.73;;;8.77;;
8632;SDS011;4354;49.832;10.746;2024-01-16T07:38:26;14.17;;;8.50;;
8632;SDS011;4354;49.832;10.746;2024-01-16T07:40:53;14.27;;;8.60;;
8632;SDS011;4354;49.832;10.746;2024-01-16T07:43:20;10.37;;;7.97;;
8632;SDS011;4354;49.832;10.746;2024-01-16T07:45:47;14.27;;;9.30;;
8632;SDS011;4354;49.832;10.746;2024-01-16T07:48:14;15.77;;;9.30;;
8632;SDS011;4354;49.832;10.746;2024-01-16T07:50:41;11.00;;;8.40;;
8632;SDS011;4354;49.832;10.746;2024-01-16T07:53:08;13.53;;;9.23;;
8632;SDS011;4354;49.832;10.746;2024-01-16T07:55:34;17.13;;;9.30;;
8632;SDS011;4354;49.832;10.746;2024-01-16T07:58:01;16.23;;;9.33;;
8632;SDS011;4354;49.832;10.746;2024-01-16T08:00:31;13.60;;;9.33;;
8632;SDS011;4354;49.832;10.746;2024-01-16T08:02:57;11.40;;;8.73;;
8632;SDS011;4354;49.832;10.746;2024-01-16T08:05:24;13.73;;;9.63;;
8632;SDS011;4354;49.832;10.746;2024-01-16T08:07:54;15.57;;;9.30;;
8632;SDS011;4354;49.832;10.746;2024-01-16T08:10:20;16.20;;;10.27;;
8632;SDS011;4354;49.832;10.746;2024-01-16T08:12:47;15.43;;;9.80;;
8632;SDS011;4354;49.832;10.746;2024-01-16T08:15:14;14.03;;;9.40;;
8632;SDS011;4354;49.832;10.746;2024-01-16T08:17:41;12.93;;;8.37;;
8632;SDS011;4354;49.832;10.746;2024-01-16T08:20:08;15.37;;;8.30;;
8632;SDS011;4354;49.832;10.746;2024-01-16T08:22:37;12.40;;;8.50;;
8632;SDS011;4354;49.832;10.746;2024-01-16T08:25:04;13.70;;;8.57;;
8632;SDS011;4354;49.832;10.746;2024-01-16T08:27:31;10.13;;;7.90;;
8632;SDS011;4354;49.832;10.746;2024-01-16T08:29:59;13.47;;;8.70;;
8632;SDS011;4354;49.832;10.746;2024-01-16T08:32:26;13.97;;;8.70;;
8632;SDS011;4354;49.832;10.746;2024-01-16T08:34:53;11.80;;;8.37;;
8632;SDS011;4354;49.832;10.746;2024-01-16T08:37:20;17.00;;;8.80;;
8632;SDS011;4354;49.832;10.746;2024-01-16T08:39:47;14.37;;;8.33;;
8632;SDS011;4354;49.832;10.746;2024-01-16T08:42:13;13.13;;;8.80;;
8632;SDS011;4354;49.832;10.746;2024-01-16T08:44:40;10.27;;;8.10;;
8632;SDS011;4354;49.832;10.746;2024-01-16T08:47:07;13.37;;;8.70;;
8632;SDS011;4354;49.832;10.746;2024-01-16T08:49:34;15.70;;;8.27;;
8632;SDS011;4354;49.832;10.746;2024-01-16T08:52:01;11.73;;;8.37;;
8632;SDS011;4354;49.832;10.746;2024-01-16T08:54:29;12.40;;;8.47;;
8632;SDS011;4354;49.832;10.746;2024-01-16T08:56:56;15.50;;;9.03;;
8632;SDS011;4354;49.832;10.746;2024-01-16T08:59:22;14.03;;;9.13;;
8632;SDS011;4354;49.832;10.746;2024-01-16T09:01:50;11.73;;;7.73;;
8632;SDS011;4354;49.832;10.746;2024-01-16T09:04:17;11.30;;;8.07;;
8632;SDS011;4354;49.832;10.746;2024-01-16T09:06:45;13.63;;;8.73;;
8632;SDS011;4354;49.832;10.746;2024-01-16T09:09:12;11.70;;;7.83;;
8632;SDS011;4354;49.832;10.746;2024-01-16T09:11:39;13.53;;;8.53;;
8632;SDS011;4354;49.832;10.746;2024-01-16T09:14:06;12.90;;;8.70;;
8632;SDS011;4354;49.832;10.746;2024-01-16T09:16:32;12.37;;;8.53;;
8632;SDS011;4354;49.832;10.746;2024-01-16T09:18:59;14.27;;;8.90;;
8632;SDS011;4354;49.832;10.746;2024-01-16T09:21:26;12.07;;;8.43;;
8632;SDS011;4354;49.832;10.746;2024-01-16T09:23:53;13.60;;;8.40;;
8632;SDS011;4354;49.832;10.746;2024-01-16T09:26:20;12.83;;;8.03;;
8632;SDS011;4354;49.832;10.746;2024-01-16T09:28:47;12.37;;;7.97;;
8632;SDS011;4354;49.832;10.746;2024-01-16T09:31:15;13.70;;;8.60;;
8632;SDS011;4354;49.832;10.746;2024-01-16T09:33:42;11.40;;;7.73;;
8632;SDS011;4354;49.832;10.746;2024-01-16T09:36:10;14.37;;;8.23;;
8632;SDS011;4354;49.832;10.746;2024-01-16T09:38:36;8.93;;;7.03;;
8632;SDS011;4354;49.832;10.746;2024-01-16T09:41:03;13.47;;;8.27;;
8632;SDS011;4354;49.832;10.746;2024-01-16T09:43:30;12.07;;;8.37;;
8632;SDS011;4354;49.832;10.746;2024-01-16T09:46:00;12.17;;;8.00;;
8632;SDS011;4354;49.832;10.746;2024-01-16T09:48:29;13.00;;;8.20;;
8632;SDS011;4354;49.832;10.746;2024-01-16T09:50:58;12.60;;;7.90;;
8632;SDS011;4354;49.832;10.746;2024-01-16T09:53:25;10.53;;;7.93;;
8632;SDS011;4354;49.832;10.746;2024-01-16T09:55:54;12.87;;;8.20;;
8632;SDS011;4354;49.832;10.746;2024-01-16T09:58:23;12.47;;;7.87;;
8632;SDS011;4354;49.832;10.746;2024-01-16T10:00:51;14.07;;;7.80;;
8632;SDS011;4354;49.832;10.746;2024-01-16T10:03:19;12.90;;;7.80;;
8632;SDS011;4354;49.832;10.746;2024-01-16T10:05:47;12.77;;;8.03;;
8632;SDS011;4354;49.832;10.746;2024-01-16T10:08:15;9.63;;;7.70;;
8632;SDS011;4354;49.832;10.746;2024-01-16T10:10:42;10.43;;;7.60;;
8632;SDS011;4354;49.832;10.746;2024-01-16T10:13:15;9.77;;;7.17;;
8632;SDS011;4354;49.832;10.746;2024-01-16T10:15:43;9.97;;;7.50;;
8632;SDS011;4354;49.832;10.746;2024-01-16T10:18:26;12.40;;;6.57;;
8632;SDS011;4354;49.832;10.746;2024-01-16T10:20:56;10.33;;;6.73;;
8632;SDS011;4354;49.832;10.746;2024-01-16T10:23:27;9.77;;;6.53;;
8632;SDS011;4354;49.832;10.746;2024-01-16T10:26:11;12.87;;;7.43;;
8632;SDS011;4354;49.832;10.746;2024-01-16T10:28:40;12.83;;;6.50;;
8632;SDS011;4354;49.832;10.746;2024-01-16T10:31:11;12.13;;;5.93;;
8632;SDS011;4354;49.832;10.746;2024-01-16T10:33:40;9.63;;;6.17;;
8632;SDS011;4354;49.832;10.746;2024-01-16T10:38:42;7.70;;;6.10;;
8632;SDS011;4354;49.832;10.746;2024-01-16T10:43:41;9.07;;;6.90;;
8632;SDS011;4354;49.832;10.746;2024-01-16T10:48:43;13.37;;;7.37;;
8632;SDS011;4354;49.832;10.746;2024-01-16T10:51:15;12.87;;;7.07;;
8632;SDS011;4354;49.832;10.746;2024-01-16T10:53:42;11.07;;;6.87;;
8632;SDS011;4354;49.832;10.746;2024-01-16T10:56:10;13.50;;;8.13;;
8632;SDS011;4354;49.832;10.746;2024-01-16T10:58:42;9.37;;;6.30;;
8632;SDS011;4354;49.832;10.746;2024-01-16T11:01:15;8.37;;;5.63;;
8632;SDS011;4354;49.832;10.746;2024-01-16T11:03:46;8.77;;;6.20;;
8632;SDS011;4354;49.832;10.746;2024-01-16T11:06:15;10.80;;;5.60;;
8632;SDS011;4354;49.832;10.746;2024-01-16T11:08:48;8.20;;;5.57;;
8632;SDS011;4354;49.832;10.746;2024-01-16T11:11:16;10.93;;;5.57;;
8632;SDS011;4354;49.832;10.746;2024-01-16T11:13:45;8.33;;;5.53;;
8632;SDS011;4354;49.832;10.746;2024-01-16T11:16:13;10.83;;;5.40;;
8632;SDS011;4354;49.832;10.746;2024-01-16T11:18:39;8.13;;;5.07;;
8632;SDS011;4354;49.832;10.746;2024-01-16T11:21:07;8.80;;;5.50;;
8632;SDS011;4354;49.832;10.746;2024-01-16T11:23:42;14.30;;;5.60;;
8632;SDS011;4354;49.832;10.746;2024-01-16T11:26:45;7.70;;;5.00;;
8632;SDS011;4354;49.832;10.746;2024-01-16T11:31:53;9.33;;;5.47;;
8632;SDS011;4354;49.832;10.746;2024-01-16T11:37:08;8.60;;;5.30;;
8632;SDS011;4354;49.832;10.746;2024-01-16T11:39:36;8.10;;;4.87;;
8632;SDS011;4354;49.832;10.746;2024-01-16T11:42:03;8.83;;;5.50;;
8632;SDS011;4354;49.832;10.746;2024-01-16T11:44:38;9.93;;;5.30;;
8632;SDS011;4354;49.832;10.746;2024-01-16T11:47:23;11.27;;;5.73;;
8632;SDS011;4354;49.832;10.746;2024-01-16T11:49:51;9.63;;;5.10;;
8632;SDS011;4354;49.832;10.746;2024-01-16T11:52:40;8.23;;;4.67;;
8632;SDS011;4354;49.832;10.746;2024-01-16T12:00:51;7.97;;;4.90;;
8632;SDS011;4354;49.832;10.746;2024-01-16T12:03:20;9.00;;;5.17;;
8632;SDS011;4354;49.832;10.746;2024-01-16T12:06:00;8.03;;;6.47;;
8632;SDS011;4354;49.832;10.746;2024-01-16T12:08:33;10.33;;;6.20;;
8632;SDS011;4354;49.832;10.746;2024-01-16T12:11:00;8.47;;;5.03;;
8632;SDS011;4354;49.832;10.746;2024-01-16T12:13:27;9.53;;;5.17;;
8632;SDS011;4354;49.832;10.746;2024-01-16T12:16:03;7.00;;;4.57;;
8632;SDS011;4354;49.832;10.746;2024-01-16T12:18:31;9.83;;;4.70;;
8632;SDS011;4354;49.832;10.746;2024-01-16T12:21:10;12.03;;;5.50;;
8632;SDS011;4354;49.832;10.746;2024-01-16T12:23:37;7.23;;;4.63;;
8632;SDS011;4354;49.832;10.746;2024-01-16T12:26:20;9.87;;;5.20;;
8632;SDS011;4354;49.832;10.746;2024-01-16T12:28:51;6.87;;;4.30;;
8632;SDS011;4354;49.832;10.746;2024-01-16T12:31:25;7.90;;;4.63;;
8632;SDS011;4354;49.832;10.746;2024-01-16T12:33:52;8.63;;;4.60;;
8632;SDS011;4354;49.832;10.746;2024-01-16T12:36:29;6.90;;;4.90;;
8632;SDS011;4354;49.832;10.746;2024-01-16T12:38:56;7.50;;;5.00;;
8632;SDS011;4354;49.832;10.746;2024-01-16T12:41:23;8.27;;;4.90;;
8632;SDS011;4354;49.832;10.746;2024-01-16T12:44:05;10.07;;;5.37;;
8632;SDS011;4354;49.832;10.746;2024-01-16T12:46:41;8.30;;;5.27;;
8632;SDS011;4354;49.832;10.746;2024-01-16T12:49:08;7.73;;;4.60;;
8632;SDS011;4354;49.832;10.746;2024-01-16T12:51:38;7.17;;;4.37;;
8632;SDS011;4354;49.832;10.746;2024-01-16T12:54:14;9.67;;;5.00;;
8632;SDS011;4354;49.832;10.746;2024-01-16T12:56:43;7.03;;;4.47;;
8632;SDS011;4354;49.832;10.746;2024-01-16T12:59:13;8.13;;;4.73;;
8632;SDS011;4354;49.832;10.746;2024-01-16T13:01:41;11.63;;;4.63;;
8632;SDS011;4354;49.832;10.746;2024-01-16T13:04:10;8.63;;;4.77;;
8632;SDS011;4354;49.832;10.746;2024-01-16T13:06:37;8.60;;;4.27;;
8632;SDS011;4354;49.832;10.746;2024-01-16T13:09:06;8.30;;;4.70;;
8632;SDS011;4354;49.832;10.746;2024-01-16T13:11:45;7.37;;;4.37;;
8632;SDS011;4354;49.832;10.746;2024-01-16T13:14:15;10.53;;;4.80;;
8632;SDS011;4354;49.832;10.746;2024-01-16T13:16:41;9.33;;;5.00;;
8632;SDS011;4354;49.832;10.746;2024-01-16T13:19:08;8.67;;;4.93;;
8632;SDS011;4354;49.832;10.746;2024-01-16T13:21:37;8.87;;;4.73;;
8632;SDS011;4354;49.832;10.746;2024-01-16T13:24:04;6.50;;;3.77;;
8632;SDS011;4354;49.832;10.746;2024-01-16T13:26:31;8.80;;;4.70;;
8632;SDS011;4354;49.832;10.746;2024-01-16T13:29:00;6.70;;;4.40;;
8632;SDS011;4354;49.832;10.746;2024-01-16T13:31:28;7.33;;;4.60;;
8632;SDS011;4354;49.832;10.746;2024-01-16T13:33:55;6.80;;;4.37;;
8632;SDS011;4354;49.832;10.746;2024-01-16T13:36:24;15.97;;;6.50;;
8632;SDS011;4354;49.832;10.746;2024-01-16T13:39:12;9.90;;;5.97;;
8632;SDS011;4354;49.832;10.746;2024-01-16T13:41:42;9.23;;;5.07;;
8632;SDS011;4354;49.832;10.746;2024-01-16T13:44:09;10.30;;;5.47;;
8632;SDS011;4354;49.832;10.746;2024-01-16T13:46:36;8.57;;;5.40;;
8632;SDS011;4354;49.832;10.746;2024-01-16T13:49:23;13.23;;;6.90;;
8632;SDS011;4354;49.832;10.746;2024-01-16T13:51:50;8.00;;;5.40;;
8632;SDS011;4354;49.832;10.746;2024-01-16T13:54:17;10.27;;;4.97;;
8632;SDS011;4354;49.832;10.746;2024-01-16T13:56:44;9.77;;;4.93;;
8632;SDS011;4354;49.832;10.746;2024-01-16T13:59:31;8.50;;;4.80;;
8632;SDS011;4354;49.832;10.746;2024-01-16T14:01:58;9.37;;;5.07;;
8632;SDS011;4354;49.832;10.746;2024-01-16T14:04:25;8.97;;;4.70;;
8632;SDS011;4354;49.832;10.746;2024-01-16T14:06:52;7.80;;;4.27;;
8632;SDS011;4354;49.832;10.746;2024-01-16T14:09:38;8.53;;;4.57;;
8632;SDS011;4354;49.832;10.746;2024-01-16T14:12:07;8.60;;;4.83;;
8632;SDS011;4354;49.832;10.746;2024-01-16T14:14:36;10.27;;;5.23;;
8632;SDS011;4354;49.832;10.746;2024-01-16T14:17:05;7.60;;;4.93;;
8632;SDS011;4354;49.832;10.746;2024-01-16T14:19:35;16.83;;;7.27;;
8632;SDS011;4354;49.832;10.746;2024-01-16T14:22:02;11.33;;;5.27;;
8632;SDS011;4354;49.832;10.746;2024-01-16T14:24:30;9.63;;;5.90;;
8632;SDS011;4354;49.832;10.746;2024-01-16T14:26:57;9.40;;;5.47;;
8632;SDS011;4354;49.832;10.746;2024-01-16T14:29:24;8.47;;;5.10;;
8632;SDS011;4354;49.832;10.746;2024-01-16T14:31:52;9.30;;;5.83;;
8632;SDS011;4354;49.832;10.746;2024-01-16T14:34:22;14.60;;;7.43;;
8632;SDS011;4354;49.832;10.746;2024-01-16T14:36:50;11.00;;;6.63;;
8632;SDS011;4354;49.832;10.746;2024-01-16T14:39:16;8.47;;;5.03;;
8632;SDS011;4354;49.832;10.746;2024-01-16T14:41:51;12.37;;;7.60;;
8632;SDS011;4354;49.832;10.746;2024-01-16T14:44:18;9.50;;;5.60;;
8632;SDS011;4354;49.832;10.746;2024-01-16T14:46:45;9.07;;;5.67;;
8632;SDS011;4354;49.832;10.746;2024-01-16T14:49:16;12.17;;;7.03;;
8632;SDS011;4354;49.832;10.746;2024-01-16T14:51:43;11.93;;;6.97;;
8632;SDS011;4354;49.832;10.746;2024-01-16T14:54:10;12.27;;;7.13;;
8632;SDS011;4354;49.832;10.746;2024-01-16T14:56:37;9.70;;;6.50;;
8632;SDS011;4354;49.832;10.746;2024-01-16T14:59:03;9.97;;;5.80;;
8632;SDS011;4354;49.832;10.746;2024-01-16T15:01:31;12.90;;;7.97;;
8632;SDS011;4354;49.832;10.746;2024-01-16T15:03:58;9.40;;;5.90;;
8632;SDS011;4354;49.832;10.746;2024-01-16T15:06:26;11.43;;;6.70;;
8632;SDS011;4354;49.832;10.746;2024-01-16T15:08:54;15.57;;;10.00;;
8632;SDS011;4354;49.832;10.746;2024-01-16T15:11:21;19.53;;;10.63;;
8632;SDS011;4354;49.832;10.746;2024-01-16T15:13:48;15.40;;;9.53;;
8632;SDS011;4354;49.832;10.746;2024-01-16T15:16:18;14.70;;;9.27;;
8632;SDS011;4354;49.832;10.746;2024-01-16T15:18:45;13.03;;;7.90;;